عمان, الأردن

02:23 AM EET on لبراêر 27, 2015 (GMT +0200)
Mars Mount | Change Station
CLOSE
Current Station
Personal Weather Stations
Location: Amman, MARIKH
Elevation: 2953 ft
Nearby Weather Stations

Elev 2953 ft 31.93 °N, 35.92 °E | Updated 5 seconds ago

Haze
ضبابية
51.1 °F
Feels Like 51.1 °F
N
4.1
ريح متغير ريح from SSE
Gusts 9.2 mph

هذا اليوم
High -- | Low -- °F
--% Chance of Precip.
Yesterday
High -- | Low -- °F
Precip. -- في
6:06 AM 5:31 PM
الأحدب الأول, 63% visible
الضغط 30.15 في
وضوح الرؤية 3.1 أميال
سحابات
نقطة الندى 28 °F
الرطوبة 41%
Rainfall 0.00 في
عمق الثلج Not available.
الأشعة فوق البنفسجية Not available.
Pollen Not available.
جودة الهواء Not available.
Flu Activity Not available.
METAR OJAM 270000Z 09004KT 5000 HZ NSC 10/M00 Q1021 NOSIG

More Conditions Fewer Conditions

الضغط 30.15 في
وضوح الرؤية 3.1 أميال
سحابات
نقطة الندى 28 °F
الرطوبة 41%
Rainfall 0.00 في
عمق الثلج Not available.
الأشعة فوق البنفسجية Not available.
Pollen Not available.
جودة الهواء Not available.
Flu Activity Not available.
METAR OJAM 270000Z 09004KT 5000 HZ NSC 10/M00 Q1021 NOSIG

More Conditions Fewer Conditions

10-Day Weather Forecast

Almanac

علم الفلك

Feb. 27, 2015 Rise Set
Actual Time
Civil Twilight
Nautical Twilight
Astronomical Twilight
قمر
Length Of Visible Light
طول الیوم
Tomorrow will be .
, % of the Moon is Illuminated

Today's Extremes

Country Highs Country Lows

Community

WunderPhotos

Upload Photos

1,800,543 photos uploaded!

WunderBlogs® & News

Nearby

جودة الهواء

  جودة الهواء AQ Index Pollutant
Not available.

عمق الثلج

Station Depth Elevation

Earthquake Activity

City Distance Mag. Time & Date
Minimum magnitude displayed is 2.5.

Coastal Water Temperatures

مكان درجات الحرارة

Nearby Weather Stations